sensor_id;sensor_type;location;lat;lon;timestamp;P1;durP1;ratioP1;P2;durP2;ratioP2
57667;SDS011;43499;52.366;12.912;2024-01-07T00:00:44;3.30;;;2.13;;
57667;SDS011;43499;52.366;12.912;2024-01-07T00:01:48;3.45;;;1.85;;
57667;SDS011;43499;52.366;12.912;2024-01-07T00:02:50;3.08;;;1.75;;
57667;SDS011;43499;52.366;12.912;2024-01-07T00:03:51;6.07;;;1.98;;
57667;SDS011;43499;52.366;12.912;2024-01-07T00:04:53;6.13;;;2.25;;
57667;SDS011;43499;52.366;12.912;2024-01-07T00:05:54;5.45;;;2.17;;
57667;SDS011;43499;52.366;12.912;2024-01-07T00:06:55;5.57;;;2.60;;
57667;SDS011;43499;52.366;12.912;2024-01-07T00:07:56;4.07;;;1.75;;
57667;SDS011;43499;52.366;12.912;2024-01-07T00:08:57;5.18;;;1.98;;
57667;SDS011;43499;52.366;12.912;2024-01-07T00:09:58;5.97;;;2.17;;
57667;SDS011;43499;52.366;12.912;2024-01-07T00:10:59;5.82;;;2.00;;
57667;SDS011;43499;52.366;12.912;2024-01-07T00:12:00;4.63;;;2.13;;
57667;SDS011;43499;52.366;12.912;2024-01-07T00:13:01;4.10;;;1.42;;
57667;SDS011;43499;52.366;12.912;2024-01-07T00:14:02;3.55;;;1.90;;
57667;SDS011;43499;52.366;12.912;2024-01-07T00:15:03;4.60;;;1.90;;
57667;SDS011;43499;52.366;12.912;2024-01-07T00:17:06;3.85;;;1.83;;
57667;SDS011;43499;52.366;12.912;2024-01-07T00:18:07;4.70;;;2.60;;
57667;SDS011;43499;52.366;12.912;2024-01-07T00:19:08;2.78;;;1.38;;
57667;SDS011;43499;52.366;12.912;2024-01-07T00:20:09;3.88;;;2.40;;
57667;SDS011;43499;52.366;12.912;2024-01-07T00:21:11;2.47;;;1.67;;
57667;SDS011;43499;52.366;12.912;2024-01-07T00:22:12;3.10;;;1.73;;
57667;SDS011;43499;52.366;12.912;2024-01-07T00:23:13;5.97;;;2.22;;
57667;SDS011;43499;52.366;12.912;2024-01-07T00:24:14;3.38;;;1.88;;
57667;SDS011;43499;52.366;12.912;2024-01-07T00:25:16;3.13;;;1.65;;
57667;SDS011;43499;52.366;12.912;2024-01-07T00:26:19;2.40;;;0.82;;
57667;SDS011;43499;52.366;12.912;2024-01-07T00:27:20;4.38;;;1.63;;
57667;SDS011;43499;52.366;12.912;2024-01-07T00:28:21;3.38;;;1.83;;
57667;SDS011;43499;52.366;12.912;2024-01-07T00:29:22;3.08;;;1.67;;
57667;SDS011;43499;52.366;12.912;2024-01-07T00:30:23;4.20;;;1.17;;
57667;SDS011;43499;52.366;12.912;2024-01-07T00:31:24;3.97;;;2.28;;
57667;SDS011;43499;52.366;12.912;2024-01-07T00:32:25;4.70;;;1.75;;
57667;SDS011;43499;52.366;12.912;2024-01-07T00:33:27;6.03;;;2.53;;
57667;SDS011;43499;52.366;12.912;2024-01-07T00:34:28;3.92;;;1.60;;
57667;SDS011;43499;52.366;12.912;2024-01-07T00:35:29;3.97;;;1.38;;
57667;SDS011;43499;52.366;12.912;2024-01-07T00:36:30;4.70;;;2.47;;
57667;SDS011;43499;52.366;12.912;2024-01-07T00:37:31;3.85;;;2.08;;
57667;SDS011;43499;52.366;12.912;2024-01-07T00:38:32;4.05;;;1.58;;
57667;SDS011;43499;52.366;12.912;2024-01-07T00:39:33;5.35;;;1.50;;
57667;SDS011;43499;52.366;12.912;2024-01-07T00:40:40;4.05;;;2.17;;
57667;SDS011;43499;52.366;12.912;2024-01-07T00:41:41;3.63;;;2.28;;
57667;SDS011;43499;52.366;12.912;2024-01-07T00:42:42;4.70;;;2.95;;
57667;SDS011;43499;52.366;12.912;2024-01-07T00:43:43;5.95;;;2.08;;
57667;SDS011;43499;52.366;12.912;2024-01-07T00:44:44;5.78;;;2.75;;
57667;SDS011;43499;52.366;12.912;2024-01-07T00:45:45;3.75;;;1.88;;
57667;SDS011;43499;52.366;12.912;2024-01-07T00:46:47;4.25;;;1.77;;
57667;SDS011;43499;52.366;12.912;2024-01-07T00:47:48;5.10;;;1.73;;
57667;SDS011;43499;52.366;12.912;2024-01-07T00:48:50;3.13;;;2.20;;
57667;SDS011;43499;52.366;12.912;2024-01-07T00:49:51;2.80;;;1.40;;
57667;SDS011;43499;52.366;12.912;2024-01-07T00:50:52;4.97;;;2.20;;
57667;SDS011;43499;52.366;12.912;2024-01-07T00:51:53;5.15;;;2.20;;
57667;SDS011;43499;52.366;12.912;2024-01-07T00:52:54;2.97;;;2.20;;
57667;SDS011;43499;52.366;12.912;2024-01-07T00:53:55;4.55;;;2.22;;
57667;SDS011;43499;52.366;12.912;2024-01-07T00:54:56;3.53;;;2.08;;
57667;SDS011;43499;52.366;12.912;2024-01-07T00:55:58;6.07;;;2.17;;
57667;SDS011;43499;52.366;12.912;2024-01-07T00:56:59;4.75;;;2.88;;
57667;SDS011;43499;52.366;12.912;2024-01-07T00:58:00;4.30;;;1.88;;
57667;SDS011;43499;52.366;12.912;2024-01-07T00:59:01;3.55;;;1.92;;
57667;SDS011;43499;52.366;12.912;2024-01-07T01:00:05;3.67;;;1.85;;
57667;SDS011;43499;52.366;12.912;2024-01-07T01:01:07;4.32;;;2.08;;
57667;SDS011;43499;52.366;12.912;2024-01-07T01:02:08;3.97;;;1.95;;
57667;SDS011;43499;52.366;12.912;2024-01-07T01:03:09;5.88;;;2.25;;
57667;SDS011;43499;52.366;12.912;2024-01-07T01:04:10;3.33;;;1.95;;
57667;SDS011;43499;52.366;12.912;2024-01-07T01:05:11;2.75;;;1.67;;
57667;SDS011;43499;52.366;12.912;2024-01-07T01:06:12;1.67;;;1.58;;
57667;SDS011;43499;52.366;12.912;2024-01-07T01:07:14;2.67;;;1.83;;
57667;SDS011;43499;52.366;12.912;2024-01-07T01:09:17;2.78;;;2.42;;
57667;SDS011;43499;52.366;12.912;2024-01-07T01:10:18;5.40;;;2.38;;
57667;SDS011;43499;52.366;12.912;2024-01-07T01:11:19;3.40;;;2.30;;
57667;SDS011;43499;52.366;12.912;2024-01-07T01:12:20;6.78;;;2.45;;
57667;SDS011;43499;52.366;12.912;2024-01-07T01:13:22;3.88;;;1.95;;
57667;SDS011;43499;52.366;12.912;2024-01-07T01:14:23;6.10;;;2.83;;
57667;SDS011;43499;52.366;12.912;2024-01-07T01:15:24;7.32;;;2.88;;
57667;SDS011;43499;52.366;12.912;2024-01-07T01:16:25;5.60;;;3.20;;
57667;SDS011;43499;52.366;12.912;2024-01-07T01:17:26;4.75;;;2.60;;
57667;SDS011;43499;52.366;12.912;2024-01-07T01:18:27;5.00;;;1.65;;
57667;SDS011;43499;52.366;12.912;2024-01-07T01:19:28;4.90;;;2.45;;
57667;SDS011;43499;52.366;12.912;2024-01-07T01:20:29;2.72;;;2.20;;
57667;SDS011;43499;52.366;12.912;2024-01-07T01:21:30;5.80;;;2.65;;
57667;SDS011;43499;52.366;12.912;2024-01-07T01:22:31;4.97;;;2.35;;
57667;SDS011;43499;52.366;12.912;2024-01-07T01:23:32;7.53;;;2.20;;
57667;SDS011;43499;52.366;12.912;2024-01-07T01:24:33;3.13;;;1.55;;
57667;SDS011;43499;52.366;12.912;2024-01-07T01:25:34;4.15;;;2.25;;
57667;SDS011;43499;52.366;12.912;2024-01-07T01:26:36;3.60;;;2.60;;
57667;SDS011;43499;52.366;12.912;2024-01-07T01:27:38;5.35;;;2.47;;
57667;SDS011;43499;52.366;12.912;2024-01-07T01:28:39;3.75;;;1.83;;
57667;SDS011;43499;52.366;12.912;2024-01-07T01:29:40;4.32;;;3.22;;
57667;SDS011;43499;52.366;12.912;2024-01-07T01:30:41;4.05;;;2.17;;
57667;SDS011;43499;52.366;12.912;2024-01-07T01:31:43;4.75;;;2.10;;
57667;SDS011;43499;52.366;12.912;2024-01-07T01:32:44;3.50;;;2.10;;
57667;SDS011;43499;52.366;12.912;2024-01-07T01:33:45;4.10;;;2.03;;
57667;SDS011;43499;52.366;12.912;2024-01-07T01:34:46;6.15;;;2.42;;
57667;SDS011;43499;52.366;12.912;2024-01-07T01:35:47;3.53;;;2.38;;
57667;SDS011;43499;52.366;12.912;2024-01-07T01:36:48;6.00;;;2.05;;
57667;SDS011;43499;52.366;12.912;2024-01-07T01:37:49;5.45;;;1.70;;
57667;SDS011;43499;52.366;12.912;2024-01-07T01:38:50;4.97;;;2.50;;
57667;SDS011;43499;52.366;12.912;2024-01-07T01:39:51;6.90;;;2.55;;
57667;SDS011;43499;52.366;12.912;2024-01-07T01:40:52;3.88;;;2.10;;
57667;SDS011;43499;52.366;12.912;2024-01-07T01:41:54;3.60;;;2.03;;
57667;SDS011;43499;52.366;12.912;2024-01-07T01:42:55;3.92;;;1.83;;
57667;SDS011;43499;52.366;12.912;2024-01-07T01:43:57;3.42;;;1.42;;
57667;SDS011;43499;52.366;12.912;2024-01-07T01:45:01;4.00;;;1.77;;
57667;SDS011;43499;52.366;12.912;2024-01-07T01:46:02;4.28;;;1.65;;
57667;SDS011;43499;52.366;12.912;2024-01-07T01:47:05;6.93;;;1.90;;
57667;SDS011;43499;52.366;12.912;2024-01-07T01:48:07;2.78;;;1.48;;
57667;SDS011;43499;52.366;12.912;2024-01-07T01:49:09;4.43;;;1.58;;
57667;SDS011;43499;52.366;12.912;2024-01-07T01:50:10;2.88;;;1.80;;
57667;SDS011;43499;52.366;12.912;2024-01-07T01:51:12;3.35;;;1.60;;
57667;SDS011;43499;52.366;12.912;2024-01-07T01:52:13;3.13;;;1.77;;
57667;SDS011;43499;52.366;12.912;2024-01-07T01:53:15;2.28;;;1.60;;
57667;SDS011;43499;52.366;12.912;2024-01-07T01:54:16;5.00;;;2.15;;
57667;SDS011;43499;52.366;12.912;2024-01-07T01:55:17;4.07;;;1.58;;
57667;SDS011;43499;52.366;12.912;2024-01-07T01:56:19;4.07;;;1.33;;
57667;SDS011;43499;52.366;12.912;2024-01-07T01:57:21;4.20;;;1.70;;
57667;SDS011;43499;52.366;12.912;2024-01-07T01:58:25;4.43;;;2.03;;
57667;SDS011;43499;52.366;12.912;2024-01-07T01:59:27;6.57;;;2.90;;
57667;SDS011;43499;52.366;12.912;2024-01-07T02:00:29;3.97;;;1.65;;
57667;SDS011;43499;52.366;12.912;2024-01-07T02:01:31;4.18;;;1.40;;
57667;SDS011;43499;52.366;12.912;2024-01-07T02:02:32;3.88;;;2.30;;
57667;SDS011;43499;52.366;12.912;2024-01-07T02:03:34;2.30;;;1.17;;
57667;SDS011;43499;52.366;12.912;2024-01-07T02:04:35;1.83;;;1.17;;
57667;SDS011;43499;52.366;12.912;2024-01-07T02:05:37;3.30;;;0.98;;
57667;SDS011;43499;52.366;12.912;2024-01-07T02:06:38;1.90;;;1.60;;
57667;SDS011;43499;52.366;12.912;2024-01-07T02:07:39;2.00;;;1.23;;
57667;SDS011;43499;52.366;12.912;2024-01-07T02:08:40;2.45;;;1.08;;
57667;SDS011;43499;52.366;12.912;2024-01-07T02:09:41;4.95;;;1.88;;
57667;SDS011;43499;52.366;12.912;2024-01-07T02:10:42;2.80;;;1.50;;
57667;SDS011;43499;52.366;12.912;2024-01-07T02:11:43;4.05;;;2.03;;
57667;SDS011;43499;52.366;12.912;2024-01-07T02:13:01;1.65;;;1.05;;
57667;SDS011;43499;52.366;12.912;2024-01-07T02:14:02;2.60;;;1.73;;
57667;SDS011;43499;52.366;12.912;2024-01-07T02:15:03;1.20;;;0.93;;
57667;SDS011;43499;52.366;12.912;2024-01-07T02:16:05;2.10;;;1.38;;
57667;SDS011;43499;52.366;12.912;2024-01-07T02:17:06;2.45;;;1.25;;
57667;SDS011;43499;52.366;12.912;2024-01-07T02:18:07;3.92;;;1.48;;
57667;SDS011;43499;52.366;12.912;2024-01-07T02:19:09;1.92;;;1.30;;
57667;SDS011;43499;52.366;12.912;2024-01-07T02:20:10;1.98;;;1.42;;
57667;SDS011;43499;52.366;12.912;2024-01-07T02:21:12;2.85;;;0.93;;
57667;SDS011;43499;52.366;12.912;2024-01-07T02:22:14;2.60;;;1.45;;
57667;SDS011;43499;52.366;12.912;2024-01-07T02:23:15;2.53;;;1.40;;
57667;SDS011;43499;52.366;12.912;2024-01-07T02:24:16;1.63;;;0.93;;
57667;SDS011;43499;52.366;12.912;2024-01-07T02:26:19;3.50;;;1.20;;
57667;SDS011;43499;52.366;12.912;2024-01-07T02:27:20;4.20;;;2.05;;
57667;SDS011;43499;52.366;12.912;2024-01-07T02:28:21;3.22;;;1.27;;
57667;SDS011;43499;52.366;12.912;2024-01-07T02:29:22;2.47;;;1.42;;
57667;SDS011;43499;52.366;12.912;2024-01-07T02:30:23;2.58;;;1.08;;
57667;SDS011;43499;52.366;12.912;2024-01-07T02:31:24;2.95;;;1.27;;
57667;SDS011;43499;52.366;12.912;2024-01-07T02:32:25;1.95;;;1.38;;
57667;SDS011;43499;52.366;12.912;2024-01-07T02:33:26;4.47;;;1.45;;
57667;SDS011;43499;52.366;12.912;2024-01-07T02:34:27;4.93;;;1.23;;
57667;SDS011;43499;52.366;12.912;2024-01-07T02:35:28;3.03;;;1.45;;
57667;SDS011;43499;52.366;12.912;2024-01-07T02:36:29;2.67;;;1.60;;
57667;SDS011;43499;52.366;12.912;2024-01-07T02:37:30;2.08;;;1.25;;
57667;SDS011;43499;52.366;12.912;2024-01-07T02:38:31;2.30;;;1.27;;
57667;SDS011;43499;52.366;12.912;2024-01-07T02:39:33;2.28;;;1.58;;
57667;SDS011;43499;52.366;12.912;2024-01-07T02:40:34;2.80;;;1.58;;
57667;SDS011;43499;52.366;12.912;2024-01-07T02:41:35;3.25;;;1.30;;
57667;SDS011;43499;52.366;12.912;2024-01-07T02:42:36;2.90;;;1.42;;
57667;SDS011;43499;52.366;12.912;2024-01-07T02:43:37;2.60;;;1.27;;
57667;SDS011;43499;52.366;12.912;2024-01-07T02:44:39;1.77;;;1.33;;
57667;SDS011;43499;52.366;12.912;2024-01-07T02:45:40;3.92;;;1.67;;
57667;SDS011;43499;52.366;12.912;2024-01-07T02:46:41;3.13;;;1.17;;
57667;SDS011;43499;52.366;12.912;2024-01-07T02:47:42;1.70;;;1.25;;
57667;SDS011;43499;52.366;12.912;2024-01-07T02:48:43;1.88;;;0.82;;
57667;SDS011;43499;52.366;12.912;2024-01-07T02:49:44;5.03;;;1.75;;
57667;SDS011;43499;52.366;12.912;2024-01-07T02:50:45;2.08;;;1.23;;
57667;SDS011;43499;52.366;12.912;2024-01-07T02:51:46;1.90;;;1.23;;
57667;SDS011;43499;52.366;12.912;2024-01-07T02:52:50;4.30;;;1.63;;
57667;SDS011;43499;52.366;12.912;2024-01-07T02:53:51;3.22;;;2.33;;
57667;SDS011;43499;52.366;12.912;2024-01-07T02:54:52;2.53;;;1.42;;
57667;SDS011;43499;52.366;12.912;2024-01-07T02:55:53;1.77;;;1.38;;
57667;SDS011;43499;52.366;12.912;2024-01-07T02:56:54;2.63;;;2.13;;
57667;SDS011;43499;52.366;12.912;2024-01-07T02:57:55;2.33;;;1.13;;
57667;SDS011;43499;52.366;12.912;2024-01-07T02:58:56;3.20;;;1.23;;
57667;SDS011;43499;52.366;12.912;2024-01-07T02:59:57;3.80;;;1.27;;
57667;SDS011;43499;52.366;12.912;2024-01-07T03:00:58;2.88;;;1.60;;
57667;SDS011;43499;52.366;12.912;2024-01-07T03:01:59;3.55;;;1.40;;
57667;SDS011;43499;52.366;12.912;2024-01-07T03:03:01;4.00;;;1.67;;
57667;SDS011;43499;52.366;12.912;2024-01-07T03:04:02;1.63;;;1.38;;
57667;SDS011;43499;52.366;12.912;2024-01-07T03:05:03;1.73;;;1.23;;
57667;SDS011;43499;52.366;12.912;2024-01-07T03:06:04;3.15;;;1.52;;
57667;SDS011;43499;52.366;12.912;2024-01-07T03:07:05;1.98;;;0.90;;
57667;SDS011;43499;52.366;12.912;2024-01-07T03:08:06;4.78;;;1.40;;
57667;SDS011;43499;52.366;12.912;2024-01-07T03:09:08;3.13;;;1.13;;
57667;SDS011;43499;52.366;12.912;2024-01-07T03:10:10;2.65;;;1.75;;
57667;SDS011;43499;52.366;12.912;2024-01-07T03:11:11;2.25;;;1.38;;
57667;SDS011;43499;52.366;12.912;2024-01-07T03:12:14;2.78;;;1.10;;
57667;SDS011;43499;52.366;12.912;2024-01-07T03:13:15;2.85;;;0.95;;
57667;SDS011;43499;52.366;12.912;2024-01-07T03:14:16;1.45;;;0.93;;
57667;SDS011;43499;52.366;12.912;2024-01-07T03:15:21;4.95;;;1.42;;
57667;SDS011;43499;52.366;12.912;2024-01-07T03:16:22;1.80;;;0.60;;
57667;SDS011;43499;52.366;12.912;2024-01-07T03:17:24;2.83;;;1.40;;
57667;SDS011;43499;52.366;12.912;2024-01-07T03:18:26;2.30;;;0.88;;
57667;SDS011;43499;52.366;12.912;2024-01-07T03:19:28;2.17;;;1.45;;
57667;SDS011;43499;52.366;12.912;2024-01-07T03:20:29;4.85;;;1.02;;
57667;SDS011;43499;52.366;12.912;2024-01-07T03:21:30;2.63;;;1.52;;
57667;SDS011;43499;52.366;12.912;2024-01-07T03:22:31;2.45;;;0.70;;
57667;SDS011;43499;52.366;12.912;2024-01-07T03:23:32;4.45;;;1.02;;
57667;SDS011;43499;52.366;12.912;2024-01-07T03:24:33;3.50;;;1.17;;
57667;SDS011;43499;52.366;12.912;2024-01-07T03:25:34;1.92;;;1.33;;
57667;SDS011;43499;52.366;12.912;2024-01-07T03:26:35;2.22;;;1.40;;
57667;SDS011;43499;52.366;12.912;2024-01-07T03:27:36;3.08;;;1.33;;
57667;SDS011;43499;52.366;12.912;2024-01-07T03:28:37;3.13;;;1.02;;
57667;SDS011;43499;52.366;12.912;2024-01-07T03:29:39;1.58;;;1.30;;
57667;SDS011;43499;52.366;12.912;2024-01-07T03:30:40;2.22;;;1.05;;
57667;SDS011;43499;52.366;12.912;2024-01-07T03:31:41;3.80;;;1.67;;
57667;SDS011;43499;52.366;12.912;2024-01-07T03:32:42;2.00;;;1.10;;
57667;SDS011;43499;52.366;12.912;2024-01-07T03:33:43;1.98;;;1.50;;
57667;SDS011;43499;52.366;12.912;2024-01-07T03:34:44;3.20;;;0.82;;
57667;SDS011;43499;52.366;12.912;2024-01-07T03:35:45;2.95;;;0.82;;
57667;SDS011;43499;52.366;12.912;2024-01-07T03:36:46;1.42;;;0.70;;
57667;SDS011;43499;52.366;12.912;2024-01-07T03:37:47;3.20;;;1.45;;
57667;SDS011;43499;52.366;12.912;2024-01-07T03:38:48;1.13;;;1.08;;
57667;SDS011;43499;52.366;12.912;2024-01-07T03:39:49;2.05;;;1.33;;
57667;SDS011;43499;52.366;12.912;2024-01-07T03:40:50;2.35;;;1.25;;
57667;SDS011;43499;52.366;12.912;2024-01-07T03:41:54;5.07;;;1.13;;
57667;SDS011;43499;52.366;12.912;2024-01-07T03:42:56;1.75;;;0.82;;
57667;SDS011;43499;52.366;12.912;2024-01-07T03:43:57;2.00;;;0.57;;
57667;SDS011;43499;52.366;12.912;2024-01-07T03:44:58;1.00;;;0.70;;
57667;SDS011;43499;52.366;12.912;2024-01-07T03:45:59;1.77;;;1.05;;
57667;SDS011;43499;52.366;12.912;2024-01-07T03:47:01;2.05;;;1.17;;
57667;SDS011;43499;52.366;12.912;2024-01-07T03:48:02;1.92;;;1.02;;
57667;SDS011;43499;52.366;12.912;2024-01-07T03:49:03;2.20;;;1.20;;
57667;SDS011;43499;52.366;12.912;2024-01-07T03:50:04;1.73;;;1.05;;
57667;SDS011;43499;52.366;12.912;2024-01-07T03:51:05;3.78;;;1.00;;
57667;SDS011;43499;52.366;12.912;2024-01-07T03:52:06;3.00;;;1.08;;
57667;SDS011;43499;52.366;12.912;2024-01-07T03:53:08;1.08;;;0.80;;
57667;SDS011;43499;52.366;12.912;2024-01-07T03:54:09;1.85;;;0.95;;
57667;SDS011;43499;52.366;12.912;2024-01-07T03:55:10;1.90;;;1.10;;
57667;SDS011;43499;52.366;12.912;2024-01-07T03:56:11;1.42;;;1.10;;
57667;SDS011;43499;52.366;12.912;2024-01-07T03:57:12;1.42;;;0.70;;
57667;SDS011;43499;52.366;12.912;2024-01-07T03:58:14;1.90;;;0.75;;
57667;SDS011;43499;52.366;12.912;2024-01-07T03:59:15;3.45;;;0.90;;
57667;SDS011;43499;52.366;12.912;2024-01-07T04:00:16;1.92;;;1.33;;
57667;SDS011;43499;52.366;12.912;2024-01-07T04:01:17;1.77;;;1.23;;
57667;SDS011;43499;52.366;12.912;2024-01-07T04:02:18;1.83;;;1.13;;
57667;SDS011;43499;52.366;12.912;2024-01-07T04:03:19;1.55;;;1.45;;
57667;SDS011;43499;52.366;12.912;2024-01-07T04:04:20;1.20;;;0.88;;
57667;SDS011;43499;52.366;12.912;2024-01-07T04:05:21;0.93;;;0.93;;
57667;SDS011;43499;52.366;12.912;2024-01-07T04:06:22;2.88;;;0.88;;
57667;SDS011;43499;52.366;12.912;2024-01-07T04:07:23;1.15;;;1.05;;
57667;SDS011;43499;52.366;12.912;2024-01-07T04:08:24;2.03;;;1.38;;
57667;SDS011;43499;52.366;12.912;2024-01-07T04:09:25;2.15;;;1.10;;
57667;SDS011;43499;52.366;12.912;2024-01-07T04:10:26;1.92;;;0.95;;
57667;SDS011;43499;52.366;12.912;2024-01-07T04:11:27;1.42;;;1.30;;
57667;SDS011;43499;52.366;12.912;2024-01-07T04:12:28;1.25;;;1.15;;
57667;SDS011;43499;52.366;12.912;2024-01-07T04:13:29;1.30;;;0.80;;
57667;SDS011;43499;52.366;12.912;2024-01-07T04:14:30;1.17;;;0.65;;
57667;SDS011;43499;52.366;12.912;2024-01-07T04:15:34;1.70;;;1.30;;
57667;SDS011;43499;52.366;12.912;2024-01-07T04:16:35;2.15;;;0.85;;
57667;SDS011;43499;52.366;12.912;2024-01-07T04:17:36;2.33;;;1.02;;
57667;SDS011;43499;52.366;12.912;2024-01-07T04:18:37;1.90;;;1.17;;
57667;SDS011;43499;52.366;12.912;2024-01-07T04:19:38;3.03;;;1.38;;
57667;SDS011;43499;52.366;12.912;2024-01-07T04:20:39;2.80;;;1.02;;
57667;SDS011;43499;52.366;12.912;2024-01-07T04:21:45;3.38;;;0.93;;
57667;SDS011;43499;52.366;12.912;2024-01-07T04:22:46;1.23;;;0.70;;
57667;SDS011;43499;52.366;12.912;2024-01-07T04:23:47;2.00;;;1.33;;
57667;SDS011;43499;52.366;12.912;2024-01-07T04:24:48;2.22;;;1.05;;
57667;SDS011;43499;52.366;12.912;2024-01-07T04:25:49;1.35;;;0.77;;
57667;SDS011;43499;52.366;12.912;2024-01-07T04:26:50;4.03;;;1.17;;
57667;SDS011;43499;52.366;12.912;2024-01-07T04:27:52;2.67;;;1.48;;
57667;SDS011;43499;52.366;12.912;2024-01-07T04:28:53;1.85;;;0.60;;
57667;SDS011;43499;52.366;12.912;2024-01-07T04:29:54;1.88;;;1.17;;
57667;SDS011;43499;52.366;12.912;2024-01-07T04:30:55;2.15;;;1.17;;
57667;SDS011;43499;52.366;12.912;2024-01-07T04:31:56;1.55;;;1.45;;
57667;SDS011;43499;52.366;12.912;2024-01-07T04:32:57;0.93;;;0.82;;
57667;SDS011;43499;52.366;12.912;2024-01-07T04:33:58;1.90;;;1.20;;
57667;SDS011;43499;52.366;12.912;2024-01-07T04:34:59;2.55;;;0.93;;
57667;SDS011;43499;52.366;12.912;2024-01-07T04:36:00;2.83;;;1.02;;
57667;SDS011;43499;52.366;12.912;2024-01-07T04:37:01;2.60;;;0.85;;
57667;SDS011;43499;52.366;12.912;2024-01-07T04:38:02;6.97;;;1.23;;
57667;SDS011;43499;52.366;12.912;2024-01-07T04:39:03;2.47;;;1.75;;
57667;SDS011;43499;52.366;12.912;2024-01-07T04:40:05;1.45;;;1.30;;
57667;SDS011;43499;52.366;12.912;2024-01-07T04:41:06;1.50;;;1.10;;
57667;SDS011;43499;52.366;12.912;2024-01-07T04:42:07;3.17;;;1.27;;
57667;SDS011;43499;52.366;12.912;2024-01-07T04:43:08;2.35;;;1.40;;
57667;SDS011;43499;52.366;12.912;2024-01-07T04:44:10;2.95;;;1.00;;
57667;SDS011;43499;52.366;12.912;2024-01-07T04:45:11;2.53;;;1.25;;
57667;SDS011;43499;52.366;12.912;2024-01-07T04:46:12;1.33;;;1.00;;
57667;SDS011;43499;52.366;12.912;2024-01-07T04:47:26;1.55;;;1.35;;
57667;SDS011;43499;52.366;12.912;2024-01-07T04:48:29;1.67;;;1.27;;
57667;SDS011;43499;52.366;12.912;2024-01-07T04:49:30;1.52;;;1.30;;
57667;SDS011;43499;52.366;12.912;2024-01-07T04:50:31;1.58;;;1.48;;
57667;SDS011;43499;52.366;12.912;2024-01-07T04:51:32;1.60;;;1.02;;
57667;SDS011;43499;52.366;12.912;2024-01-07T04:52:33;2.78;;;1.00;;
57667;SDS011;43499;52.366;12.912;2024-01-07T04:53:35;1.80;;;0.98;;
57667;SDS011;43499;52.366;12.912;2024-01-07T04:55:37;2.35;;;1.02;;
57667;SDS011;43499;52.366;12.912;2024-01-07T04:56:38;1.63;;;1.10;;
57667;SDS011;43499;52.366;12.912;2024-01-07T04:57:39;1.60;;;1.30;;
57667;SDS011;43499;52.366;12.912;2024-01-07T04:58:40;1.05;;;0.70;;
57667;SDS011;43499;52.366;12.912;2024-01-07T04:59:41;3.03;;;1.55;;
57667;SDS011;43499;52.366;12.912;2024-01-07T05:00:42;1.48;;;1.10;;
57667;SDS011;43499;52.366;12.912;2024-01-07T05:01:43;1.88;;;0.95;;
57667;SDS011;43499;52.366;12.912;2024-01-07T05:02:44;1.33;;;1.00;;
57667;SDS011;43499;52.366;12.912;2024-01-07T05:03:45;1.40;;;0.80;;
57667;SDS011;43499;52.366;12.912;2024-01-07T05:04:46;1.23;;;0.88;;
57667;SDS011;43499;52.366;12.912;2024-01-07T05:05:47;1.10;;;0.98;;
57667;SDS011;43499;52.366;12.912;2024-01-07T05:06:48;0.80;;;0.80;;
57667;SDS011;43499;52.366;12.912;2024-01-07T05:07:50;1.67;;;1.35;;
57667;SDS011;43499;52.366;12.912;2024-01-07T05:08:51;1.08;;;0.60;;
57667;SDS011;43499;52.366;12.912;2024-01-07T05:09:52;0.75;;;0.73;;
57667;SDS011;43499;52.366;12.912;2024-01-07T05:10:53;2.22;;;0.80;;
57667;SDS011;43499;52.366;12.912;2024-01-07T05:11:54;1.08;;;1.00;;
57667;SDS011;43499;52.366;12.912;2024-01-07T05:12:55;0.98;;;0.68;;
57667;SDS011;43499;52.366;12.912;2024-01-07T05:13:56;0.98;;;0.70;;
57667;SDS011;43499;52.366;12.912;2024-01-07T05:14:57;2.53;;;0.63;;
57667;SDS011;43499;52.366;12.912;2024-01-07T05:15:58;3.40;;;0.77;;
57667;SDS011;43499;52.366;12.912;2024-01-07T05:16:59;1.30;;;1.20;;
57667;SDS011;43499;52.366;12.912;2024-01-07T05:18:00;1.27;;;0.77;;
57667;SDS011;43499;52.366;12.912;2024-01-07T05:19:01;2.25;;;1.00;;
57667;SDS011;43499;52.366;12.912;2024-01-07T05:20:02;0.95;;;0.93;;
57667;SDS011;43499;52.366;12.912;2024-01-07T05:21:05;2.35;;;1.00;;
57667;SDS011;43499;52.366;12.912;2024-01-07T05:22:06;0.68;;;0.63;;
57667;SDS011;43499;52.366;12.912;2024-01-07T05:23:07;0.93;;;0.70;;
57667;SDS011;43499;52.366;12.912;2024-01-07T05:24:08;1.42;;;1.10;;
57667;SDS011;43499;52.366;12.912;2024-01-07T05:25:09;1.95;;;1.75;;
57667;SDS011;43499;52.366;12.912;2024-01-07T05:26:10;0.82;;;0.80;;
57667;SDS011;43499;52.366;12.912;2024-01-07T05:27:11;2.72;;;1.05;;
57667;SDS011;43499;52.366;12.912;2024-01-07T05:28:13;4.18;;;0.90;;
57667;SDS011;43499;52.366;12.912;2024-01-07T05:30:15;1.17;;;0.65;;
57667;SDS011;43499;52.366;12.912;2024-01-07T05:31:16;2.42;;;1.23;;
57667;SDS011;43499;52.366;12.912;2024-01-07T05:32:18;1.88;;;0.80;;
57667;SDS011;43499;52.366;12.912;2024-01-07T05:33:19;2.78;;;1.30;;
57667;SDS011;43499;52.366;12.912;2024-01-07T05:34:20;0.77;;;0.77;;
57667;SDS011;43499;52.366;12.912;2024-01-07T05:35:21;1.08;;;0.98;;
57667;SDS011;43499;52.366;12.912;2024-01-07T05:36:22;0.85;;;0.63;;
57667;SDS011;43499;52.366;12.912;2024-01-07T05:37:23;1.15;;;1.00;;
57667;SDS011;43499;52.366;12.912;2024-01-07T05:38:24;2.90;;;1.10;;
57667;SDS011;43499;52.366;12.912;2024-01-07T05:39:25;1.33;;;1.02;;
57667;SDS011;43499;52.366;12.912;2024-01-07T05:40:27;1.15;;;0.80;;
57667;SDS011;43499;52.366;12.912;2024-01-07T05:41:28;1.60;;;1.10;;
57667;SDS011;43499;52.366;12.912;2024-01-07T05:42:29;1.70;;;1.05;;
57667;SDS011;43499;52.366;12.912;2024-01-07T05:43:30;1.58;;;0.82;;
57667;SDS011;43499;52.366;12.912;2024-01-07T05:44:31;1.50;;;1.35;;
57667;SDS011;43499;52.366;12.912;2024-01-07T05:45:32;2.67;;;1.00;;
57667;SDS011;43499;52.366;12.912;2024-01-07T05:46:33;2.22;;;0.90;;
57667;SDS011;43499;52.366;12.912;2024-01-07T05:47:34;1.52;;;1.27;;
57667;SDS011;43499;52.366;12.912;2024-01-07T05:48:45;1.15;;;1.05;;
57667;SDS011;43499;52.366;12.912;2024-01-07T05:49:47;2.03;;;1.08;;
57667;SDS011;43499;52.366;12.912;2024-01-07T05:50:48;1.48;;;0.88;;
57667;SDS011;43499;52.366;12.912;2024-01-07T05:51:49;2.30;;;1.48;;
57667;SDS011;43499;52.366;12.912;2024-01-07T05:52:50;0.60;;;0.60;;
57667;SDS011;43499;52.366;12.912;2024-01-07T05:53:52;7.80;;;1.00;;
57667;SDS011;43499;52.366;12.912;2024-01-07T05:54:53;1.67;;;0.68;;
57667;SDS011;43499;52.366;12.912;2024-01-07T05:55:54;2.45;;;1.00;;
57667;SDS011;43499;52.366;12.912;2024-01-07T05:56:55;2.65;;;1.35;;
57667;SDS011;43499;52.366;12.912;2024-01-07T05:57:56;2.30;;;1.08;;
57667;SDS011;43499;52.366;12.912;2024-01-07T05:58:57;1.60;;;0.80;;
57667;SDS011;43499;52.366;12.912;2024-01-07T05:59:58;0.77;;;0.77;;
57667;SDS011;43499;52.366;12.912;2024-01-07T06:00:59;2.08;;;0.85;;
57667;SDS011;43499;52.366;12.912;2024-01-07T06:02:01;1.20;;;0.95;;
57667;SDS011;43499;52.366;12.912;2024-01-07T06:03:02;1.55;;;1.33;;
57667;SDS011;43499;52.366;12.912;2024-01-07T06:04:03;1.73;;;0.95;;
57667;SDS011;43499;52.366;12.912;2024-01-07T06:05:04;1.58;;;1.00;;
57667;SDS011;43499;52.366;12.912;2024-01-07T06:06:05;2.58;;;1.15;;
57667;SDS011;43499;52.366;12.912;2024-01-07T06:07:07;1.60;;;0.95;;
57667;SDS011;43499;52.366;12.912;2024-01-07T06:08:08;2.25;;;1.52;;
57667;SDS011;43499;52.366;12.912;2024-01-07T06:09:09;1.67;;;1.13;;